sensor_id;sensor_type;location;lat;lon;timestamp;P1;durP1;ratioP1;P2;durP2;ratioP2
42414;SDS011;28058;46.344;17.786;2023-06-14T04:31:30;5.10;;;2.92;;
42414;SDS011;28058;46.344;17.786;2023-06-14T04:35:00;5.88;;;2.85;;
42414;SDS011;28058;46.344;17.786;2023-06-14T07:43:31;4.90;;;2.33;;
42414;SDS011;28058;46.344;17.786;2023-06-14T07:46:59;3.05;;;2.30;;
42414;SDS011;28058;46.344;17.786;2023-06-14T07:50:24;2.92;;;2.20;;
42414;SDS011;28058;46.344;17.786;2023-06-14T07:53:50;3.83;;;2.15;;
42414;SDS011;28058;46.344;17.786;2023-06-14T07:57:15;5.45;;;2.35;;
42414;SDS011;28058;46.344;17.786;2023-06-14T08:00:41;6.53;;;2.40;;
42414;SDS011;28058;46.344;17.786;2023-06-14T08:04:13;5.00;;;2.20;;
42414;SDS011;28058;46.344;17.786;2023-06-14T08:07:40;5.30;;;2.55;;
42414;SDS011;28058;46.344;17.786;2023-06-14T08:11:05;5.63;;;2.70;;
42414;SDS011;28058;46.344;17.786;2023-06-14T08:14:36;4.23;;;2.60;;
42414;SDS011;28058;46.344;17.786;2023-06-14T08:18:02;4.22;;;2.13;;
42414;SDS011;28058;46.344;17.786;2023-06-14T08:59:14;4.22;;;2.40;;
42414;SDS011;28058;46.344;17.786;2023-06-14T09:02:41;4.72;;;3.25;;
42414;SDS011;28058;46.344;17.786;2023-06-14T09:06:11;4.72;;;2.92;;
42414;SDS011;28058;46.344;17.786;2023-06-14T09:09:40;5.53;;;2.53;;
42414;SDS011;28058;46.344;17.786;2023-06-14T09:13:07;3.38;;;2.58;;
42414;SDS011;28058;46.344;17.786;2023-06-14T09:16:32;5.63;;;2.47;;
42414;SDS011;28058;46.344;17.786;2023-06-14T09:20:06;3.97;;;2.38;;
42414;SDS011;28058;46.344;17.786;2023-06-14T09:23:38;4.65;;;2.30;;
42414;SDS011;28058;46.344;17.786;2023-06-14T09:27:04;4.20;;;2.47;;
42414;SDS011;28058;46.344;17.786;2023-06-14T09:30:32;3.00;;;2.30;;
42414;SDS011;28058;46.344;17.786;2023-06-14T09:34:01;5.88;;;2.67;;
42414;SDS011;28058;46.344;17.786;2023-06-14T09:37:29;4.97;;;2.47;;
42414;SDS011;28058;46.344;17.786;2023-06-14T09:40:56;4.15;;;2.55;;
42414;SDS011;28058;46.344;17.786;2023-06-14T09:44:22;4.60;;;2.50;;
42414;SDS011;28058;46.344;17.786;2023-06-14T09:47:49;5.93;;;2.38;;
42414;SDS011;28058;46.344;17.786;2023-06-14T09:51:15;4.15;;;2.90;;
42414;SDS011;28058;46.344;17.786;2023-06-14T09:54:44;5.40;;;2.70;;
42414;SDS011;28058;46.344;17.786;2023-06-14T09:58:11;3.67;;;2.50;;
42414;SDS011;28058;46.344;17.786;2023-06-14T10:01:42;4.50;;;2.40;;
42414;SDS011;28058;46.344;17.786;2023-06-14T10:05:15;3.15;;;2.15;;
42414;SDS011;28058;46.344;17.786;2023-06-14T10:08:41;5.55;;;2.30;;
42414;SDS011;28058;46.344;17.786;2023-06-14T12:58:50;4.43;;;2.60;;
42414;SDS011;28058;46.344;17.786;2023-06-14T13:02:16;4.03;;;2.58;;
42414;SDS011;28058;46.344;17.786;2023-06-14T13:05:42;4.85;;;2.40;;
42414;SDS011;28058;46.344;17.786;2023-06-14T13:09:08;5.07;;;2.60;;
42414;SDS011;28058;46.344;17.786;2023-06-14T13:12:33;5.28;;;2.67;;
42414;SDS011;28058;46.344;17.786;2023-06-14T13:16:01;6.47;;;2.63;;
42414;SDS011;28058;46.344;17.786;2023-06-14T13:19:27;3.67;;;2.60;;
42414;SDS011;28058;46.344;17.786;2023-06-14T13:22:52;8.88;;;2.97;;
42414;SDS011;28058;46.344;17.786;2023-06-14T13:26:18;3.83;;;2.45;;
42414;SDS011;28058;46.344;17.786;2023-06-14T13:29:44;5.35;;;2.80;;
42414;SDS011;28058;46.344;17.786;2023-06-14T13:33:09;7.43;;;3.05;;
42414;SDS011;28058;46.344;17.786;2023-06-14T13:36:34;6.13;;;2.80;;
42414;SDS011;28058;46.344;17.786;2023-06-14T13:40:00;7.95;;;3.15;;
42414;SDS011;28058;46.344;17.786;2023-06-14T13:43:25;4.47;;;2.50;;
42414;SDS011;28058;46.344;17.786;2023-06-14T13:46:51;4.10;;;2.92;;
42414;SDS011;28058;46.344;17.786;2023-06-14T13:50:16;4.03;;;2.55;;
42414;SDS011;28058;46.344;17.786;2023-06-14T13:53:50;4.93;;;3.13;;
42414;SDS011;28058;46.344;17.786;2023-06-14T13:57:16;3.97;;;2.70;;
42414;SDS011;28058;46.344;17.786;2023-06-14T14:00:42;10.75;;;3.75;;
42414;SDS011;28058;46.344;17.786;2023-06-14T14:04:07;4.03;;;2.42;;
42414;SDS011;28058;46.344;17.786;2023-06-14T14:07:33;6.75;;;2.65;;
42414;SDS011;28058;46.344;17.786;2023-06-14T14:10:59;4.13;;;2.40;;
42414;SDS011;28058;46.344;17.786;2023-06-14T14:14:25;5.43;;;2.90;;
42414;SDS011;28058;46.344;17.786;2023-06-14T14:17:50;5.32;;;2.20;;
42414;SDS011;28058;46.344;17.786;2023-06-14T14:21:15;4.25;;;2.53;;
42414;SDS011;28058;46.344;17.786;2023-06-14T14:24:41;5.25;;;2.58;;
42414;SDS011;28058;46.344;17.786;2023-06-14T14:28:07;3.72;;;2.70;;
42414;SDS011;28058;46.344;17.786;2023-06-14T14:31:32;4.70;;;2.78;;
42414;SDS011;28058;46.344;17.786;2023-06-14T14:34:58;4.97;;;2.58;;
42414;SDS011;28058;46.344;17.786;2023-06-14T14:38:23;3.80;;;2.65;;
42414;SDS011;28058;46.344;17.786;2023-06-14T14:41:49;5.03;;;2.78;;
42414;SDS011;28058;46.344;17.786;2023-06-14T14:45:15;4.18;;;2.38;;
42414;SDS011;28058;46.344;17.786;2023-06-14T14:48:43;3.63;;;2.67;;
42414;SDS011;28058;46.344;17.786;2023-06-14T14:52:08;4.68;;;2.78;;
42414;SDS011;28058;46.344;17.786;2023-06-14T14:55:34;6.68;;;2.72;;
42414;SDS011;28058;46.344;17.786;2023-06-14T14:59:01;4.25;;;2.65;;
42414;SDS011;28058;46.344;17.786;2023-06-14T15:02:27;4.43;;;2.50;;
42414;SDS011;28058;46.344;17.786;2023-06-14T15:05:52;4.57;;;2.17;;
42414;SDS011;28058;46.344;17.786;2023-06-14T15:09:17;4.70;;;2.30;;
42414;SDS011;28058;46.344;17.786;2023-06-14T15:12:43;4.40;;;2.50;;
42414;SDS011;28058;46.344;17.786;2023-06-14T15:16:09;4.65;;;2.42;;
42414;SDS011;28058;46.344;17.786;2023-06-14T15:19:34;3.53;;;2.50;;
42414;SDS011;28058;46.344;17.786;2023-06-14T15:23:00;4.72;;;2.95;;
42414;SDS011;28058;46.344;17.786;2023-06-14T15:26:25;3.28;;;2.30;;
42414;SDS011;28058;46.344;17.786;2023-06-14T15:29:51;7.35;;;2.53;;
42414;SDS011;28058;46.344;17.786;2023-06-14T15:33:16;4.50;;;2.90;;
42414;SDS011;28058;46.344;17.786;2023-06-14T15:36:42;8.52;;;2.67;;
42414;SDS011;28058;46.344;17.786;2023-06-14T15:40:07;5.38;;;2.80;;
42414;SDS011;28058;46.344;17.786;2023-06-14T15:43:34;6.78;;;3.03;;
42414;SDS011;28058;46.344;17.786;2023-06-14T15:46:59;5.57;;;2.75;;
42414;SDS011;28058;46.344;17.786;2023-06-14T15:50:26;6.15;;;2.40;;
42414;SDS011;28058;46.344;17.786;2023-06-14T15:53:52;4.95;;;2.78;;
42414;SDS011;28058;46.344;17.786;2023-06-14T15:57:17;5.25;;;2.65;;
42414;SDS011;28058;46.344;17.786;2023-06-14T16:00:42;4.43;;;2.55;;
42414;SDS011;28058;46.344;17.786;2023-06-14T16:04:08;4.28;;;2.30;;
42414;SDS011;28058;46.344;17.786;2023-06-14T16:07:34;4.75;;;2.53;;
42414;SDS011;28058;46.344;17.786;2023-06-14T16:11:06;5.93;;;3.08;;
42414;SDS011;28058;46.344;17.786;2023-06-14T16:14:33;4.43;;;2.60;;
42414;SDS011;28058;46.344;17.786;2023-06-14T16:17:58;3.78;;;2.58;;
42414;SDS011;28058;46.344;17.786;2023-06-14T16:21:23;8.73;;;2.72;;
42414;SDS011;28058;46.344;17.786;2023-06-14T16:24:49;3.08;;;2.47;;
42414;SDS011;28058;46.344;17.786;2023-06-14T16:28:14;3.95;;;2.38;;
42414;SDS011;28058;46.344;17.786;2023-06-14T16:31:40;9.15;;;2.75;;
42414;SDS011;28058;46.344;17.786;2023-06-14T16:35:06;5.13;;;2.92;;
42414;SDS011;28058;46.344;17.786;2023-06-14T16:38:32;5.22;;;2.92;;
42414;SDS011;28058;46.344;17.786;2023-06-14T16:41:57;6.68;;;2.67;;
42414;SDS011;28058;46.344;17.786;2023-06-14T16:45:23;6.80;;;3.10;;
42414;SDS011;28058;46.344;17.786;2023-06-14T16:48:59;5.40;;;2.63;;
42414;SDS011;28058;46.344;17.786;2023-06-14T16:52:25;6.25;;;2.78;;
42414;SDS011;28058;46.344;17.786;2023-06-14T16:55:50;5.53;;;3.10;;
42414;SDS011;28058;46.344;17.786;2023-06-14T16:59:18;11.77;;;3.42;;
42414;SDS011;28058;46.344;17.786;2023-06-14T17:02:44;3.92;;;2.83;;
42414;SDS011;28058;46.344;17.786;2023-06-14T17:06:10;4.72;;;2.78;;
42414;SDS011;28058;46.344;17.786;2023-06-14T17:09:36;9.98;;;3.05;;
42414;SDS011;28058;46.344;17.786;2023-06-14T17:13:01;5.28;;;3.25;;
42414;SDS011;28058;46.344;17.786;2023-06-14T17:16:28;5.22;;;3.38;;
42414;SDS011;28058;46.344;17.786;2023-06-14T17:19:54;5.90;;;2.90;;
42414;SDS011;28058;46.344;17.786;2023-06-14T17:23:19;6.72;;;3.40;;
42414;SDS011;28058;46.344;17.786;2023-06-14T17:26:51;8.52;;;3.38;;
42414;SDS011;28058;46.344;17.786;2023-06-14T17:30:16;7.07;;;3.47;;
42414;SDS011;28058;46.344;17.786;2023-06-14T17:33:42;7.30;;;3.05;;
42414;SDS011;28058;46.344;17.786;2023-06-14T17:37:07;5.43;;;3.20;;
42414;SDS011;28058;46.344;17.786;2023-06-14T17:40:32;4.35;;;2.58;;
42414;SDS011;28058;46.344;17.786;2023-06-14T17:43:59;11.32;;;3.63;;
42414;SDS011;28058;46.344;17.786;2023-06-14T17:47:25;8.48;;;3.47;;
42414;SDS011;28058;46.344;17.786;2023-06-14T17:50:50;7.20;;;3.17;;
42414;SDS011;28058;46.344;17.786;2023-06-14T17:54:16;8.27;;;4.10;;
42414;SDS011;28058;46.344;17.786;2023-06-14T17:57:41;7.55;;;3.63;;
42414;SDS011;28058;46.344;17.786;2023-06-14T18:01:07;7.53;;;3.60;;
42414;SDS011;28058;46.344;17.786;2023-06-14T18:04:33;6.40;;;3.53;;
42414;SDS011;28058;46.344;17.786;2023-06-14T18:07:58;5.72;;;4.03;;
42414;SDS011;28058;46.344;17.786;2023-06-14T18:11:24;8.07;;;4.03;;
42414;SDS011;28058;46.344;17.786;2023-06-14T18:14:49;6.00;;;3.90;;
42414;SDS011;28058;46.344;17.786;2023-06-14T18:18:15;9.18;;;3.80;;
42414;SDS011;28058;46.344;17.786;2023-06-14T18:21:46;7.75;;;4.00;;
42414;SDS011;28058;46.344;17.786;2023-06-14T18:25:13;7.07;;;3.72;;
42414;SDS011;28058;46.344;17.786;2023-06-14T18:28:38;6.75;;;4.13;;
42414;SDS011;28058;46.344;17.786;2023-06-14T18:32:04;8.20;;;4.20;;
42414;SDS011;28058;46.344;17.786;2023-06-14T18:35:32;6.57;;;3.92;;
42414;SDS011;28058;46.344;17.786;2023-06-14T18:38:58;6.13;;;4.25;;
42414;SDS011;28058;46.344;17.786;2023-06-14T18:42:23;9.07;;;3.78;;
42414;SDS011;28058;46.344;17.786;2023-06-14T18:45:48;27.30;;;6.15;;
42414;SDS011;28058;46.344;17.786;2023-06-14T18:49:14;8.25;;;4.55;;
42414;SDS011;28058;46.344;17.786;2023-06-14T18:52:40;7.13;;;4.80;;
42414;SDS011;28058;46.344;17.786;2023-06-14T18:56:06;6.55;;;4.22;;
42414;SDS011;28058;46.344;17.786;2023-06-14T18:59:32;10.68;;;5.38;;
42414;SDS011;28058;46.344;17.786;2023-06-14T19:02:59;9.07;;;5.15;;
42414;SDS011;28058;46.344;17.786;2023-06-14T19:06:25;6.32;;;3.90;;
42414;SDS011;28058;46.344;17.786;2023-06-14T19:09:51;9.23;;;4.25;;
42414;SDS011;28058;46.344;17.786;2023-06-14T19:13:17;7.63;;;4.70;;
42414;SDS011;28058;46.344;17.786;2023-06-14T19:16:43;8.98;;;4.65;;
42414;SDS011;28058;46.344;17.786;2023-06-14T19:20:19;9.30;;;5.70;;
42414;SDS011;28058;46.344;17.786;2023-06-14T19:23:45;8.40;;;5.45;;
42414;SDS011;28058;46.344;17.786;2023-06-14T19:27:10;12.88;;;5.43;;
42414;SDS011;28058;46.344;17.786;2023-06-14T19:30:36;7.05;;;5.70;;
42414;SDS011;28058;46.344;17.786;2023-06-14T19:34:02;11.18;;;5.20;;
42414;SDS011;28058;46.344;17.786;2023-06-14T19:37:28;9.48;;;4.97;;
42414;SDS011;28058;46.344;17.786;2023-06-14T19:40:58;9.35;;;5.25;;
42414;SDS011;28058;46.344;17.786;2023-06-14T19:44:24;8.60;;;5.40;;
42414;SDS011;28058;46.344;17.786;2023-06-14T19:47:51;9.45;;;6.15;;
42414;SDS011;28058;46.344;17.786;2023-06-14T19:51:17;9.32;;;5.50;;
42414;SDS011;28058;46.344;17.786;2023-06-14T19:54:42;7.00;;;5.53;;
42414;SDS011;28058;46.344;17.786;2023-06-14T19:58:08;9.40;;;5.00;;
42414;SDS011;28058;46.344;17.786;2023-06-14T20:01:33;8.52;;;5.40;;
42414;SDS011;28058;46.344;17.786;2023-06-14T20:04:59;7.88;;;4.82;;
42414;SDS011;28058;46.344;17.786;2023-06-14T20:08:24;7.53;;;4.70;;
42414;SDS011;28058;46.344;17.786;2023-06-14T20:11:52;7.53;;;5.28;;
42414;SDS011;28058;46.344;17.786;2023-06-14T20:15:18;8.27;;;5.32;;
42414;SDS011;28058;46.344;17.786;2023-06-14T20:18:44;9.73;;;5.03;;
42414;SDS011;28058;46.344;17.786;2023-06-14T20:22:10;8.43;;;5.43;;
42414;SDS011;28058;46.344;17.786;2023-06-14T20:25:35;9.25;;;6.30;;
42414;SDS011;28058;46.344;17.786;2023-06-14T20:29:02;11.20;;;5.05;;
42414;SDS011;28058;46.344;17.786;2023-06-14T20:32:28;9.60;;;6.35;;
42414;SDS011;28058;46.344;17.786;2023-06-14T20:35:53;7.25;;;5.25;;
42414;SDS011;28058;46.344;17.786;2023-06-14T20:39:19;9.75;;;5.72;;
42414;SDS011;28058;46.344;17.786;2023-06-14T20:42:45;7.45;;;4.63;;
42414;SDS011;28058;46.344;17.786;2023-06-14T20:46:11;6.50;;;4.53;;
42414;SDS011;28058;46.344;17.786;2023-06-14T20:49:39;9.07;;;5.70;;
42414;SDS011;28058;46.344;17.786;2023-06-14T20:53:04;7.35;;;5.10;;
42414;SDS011;28058;46.344;17.786;2023-06-14T20:56:30;9.48;;;5.68;;
42414;SDS011;28058;46.344;17.786;2023-06-14T20:59:56;8.15;;;5.55;;
42414;SDS011;28058;46.344;17.786;2023-06-14T21:03:23;7.47;;;5.22;;
42414;SDS011;28058;46.344;17.786;2023-06-14T21:06:48;7.78;;;5.35;;
42414;SDS011;28058;46.344;17.786;2023-06-14T21:10:15;8.02;;;5.43;;
42414;SDS011;28058;46.344;17.786;2023-06-14T21:13:40;8.00;;;4.53;;
42414;SDS011;28058;46.344;17.786;2023-06-14T21:17:06;7.40;;;4.55;;
42414;SDS011;28058;46.344;17.786;2023-06-14T21:20:31;8.25;;;5.15;;
42414;SDS011;28058;46.344;17.786;2023-06-14T21:23:57;7.95;;;5.35;;
42414;SDS011;28058;46.344;17.786;2023-06-14T21:27:22;8.63;;;5.15;;
42414;SDS011;28058;46.344;17.786;2023-06-14T21:30:48;8.65;;;4.78;;
42414;SDS011;28058;46.344;17.786;2023-06-14T21:34:14;8.50;;;5.20;;
42414;SDS011;28058;46.344;17.786;2023-06-14T21:37:43;8.85;;;5.50;;
42414;SDS011;28058;46.344;17.786;2023-06-14T21:41:08;7.72;;;4.47;;
42414;SDS011;28058;46.344;17.786;2023-06-14T21:44:43;6.90;;;4.55;;
42414;SDS011;28058;46.344;17.786;2023-06-14T21:48:10;10.20;;;5.32;;
42414;SDS011;28058;46.344;17.786;2023-06-14T21:51:35;7.30;;;5.22;;
42414;SDS011;28058;46.344;17.786;2023-06-14T21:55:01;6.85;;;4.97;;
42414;SDS011;28058;46.344;17.786;2023-06-14T21:58:26;8.00;;;4.90;;
42414;SDS011;28058;46.344;17.786;2023-06-14T22:01:51;8.30;;;5.25;;
42414;SDS011;28058;46.344;17.786;2023-06-14T22:05:17;21.10;;;5.70;;
42414;SDS011;28058;46.344;17.786;2023-06-14T22:08:43;6.68;;;4.72;;
42414;SDS011;28058;46.344;17.786;2023-06-14T22:12:10;8.07;;;4.78;;
42414;SDS011;28058;46.344;17.786;2023-06-14T22:15:36;9.27;;;5.90;;
42414;SDS011;28058;46.344;17.786;2023-06-14T22:19:02;6.72;;;4.95;;
42414;SDS011;28058;46.344;17.786;2023-06-14T22:22:32;12.20;;;5.28;;
42414;SDS011;28058;46.344;17.786;2023-06-14T22:26:06;6.55;;;4.35;;
42414;SDS011;28058;46.344;17.786;2023-06-14T22:29:35;6.22;;;4.90;;
42414;SDS011;28058;46.344;17.786;2023-06-14T22:33:03;8.57;;;5.57;;
42414;SDS011;28058;46.344;17.786;2023-06-14T22:36:29;8.30;;;5.43;;
42414;SDS011;28058;46.344;17.786;2023-06-14T22:40:06;7.28;;;5.45;;
42414;SDS011;28058;46.344;17.786;2023-06-14T22:43:39;7.57;;;5.75;;
42414;SDS011;28058;46.344;17.786;2023-06-14T22:47:06;9.77;;;5.70;;
42414;SDS011;28058;46.344;17.786;2023-06-14T22:50:32;7.38;;;5.50;;
42414;SDS011;28058;46.344;17.786;2023-06-14T22:53:57;8.02;;;5.47;;
42414;SDS011;28058;46.344;17.786;2023-06-14T22:57:22;8.23;;;6.28;;
42414;SDS011;28058;46.344;17.786;2023-06-14T23:00:51;7.20;;;5.47;;
42414;SDS011;28058;46.344;17.786;2023-06-14T23:04:17;7.55;;;5.45;;
42414;SDS011;28058;46.344;17.786;2023-06-14T23:07:44;9.68;;;6.28;;
42414;SDS011;28058;46.344;17.786;2023-06-14T23:11:14;10.18;;;5.85;;
42414;SDS011;28058;46.344;17.786;2023-06-14T23:14:40;7.95;;;6.03;;
42414;SDS011;28058;46.344;17.786;2023-06-14T23:18:07;9.30;;;5.80;;
42414;SDS011;28058;46.344;17.786;2023-06-14T23:21:32;8.50;;;5.40;;
42414;SDS011;28058;46.344;17.786;2023-06-14T23:25:02;9.30;;;6.13;;
42414;SDS011;28058;46.344;17.786;2023-06-14T23:28:29;8.35;;;6.22;;
42414;SDS011;28058;46.344;17.786;2023-06-14T23:31:54;7.70;;;5.35;;
42414;SDS011;28058;46.344;17.786;2023-06-14T23:35:23;9.05;;;5.43;;
42414;SDS011;28058;46.344;17.786;2023-06-14T23:42:24;8.05;;;5.53;;
42414;SDS011;28058;46.344;17.786;2023-06-14T23:45:51;8.20;;;5.80;;
42414;SDS011;28058;46.344;17.786;2023-06-14T23:49:23;8.27;;;5.72;;
42414;SDS011;28058;46.344;17.786;2023-06-14T23:52:48;9.40;;;5.78;;
42414;SDS011;28058;46.344;17.786;2023-06-14T23:56:14;8.20;;;5.07;;
42414;SDS011;28058;46.344;17.786;2023-06-14T23:59:41;8.93;;;5.38;;
